sensor_id;sensor_type;location;lat;lon;timestamp;P1;durP1;ratioP1;P2;durP2;ratioP2
69991;SDS011;57332;51.320;-0.580;2023-05-10T00:01:33;4.03;;;1.83;;
69991;SDS011;57332;51.320;-0.580;2023-05-10T00:03:59;4.53;;;1.67;;
69991;SDS011;57332;51.320;-0.580;2023-05-10T00:06:26;3.38;;;1.67;;
69991;SDS011;57332;51.320;-0.580;2023-05-10T00:08:54;3.50;;;1.80;;
69991;SDS011;57332;51.320;-0.580;2023-05-10T00:11:21;3.85;;;1.77;;
69991;SDS011;57332;51.320;-0.580;2023-05-10T00:13:48;5.47;;;1.88;;
69991;SDS011;57332;51.320;-0.580;2023-05-10T00:16:16;4.45;;;1.88;;
69991;SDS011;57332;51.320;-0.580;2023-05-10T00:18:42;4.68;;;1.50;;
69991;SDS011;57332;51.320;-0.580;2023-05-10T00:21:09;4.05;;;1.80;;
69991;SDS011;57332;51.320;-0.580;2023-05-10T00:23:36;3.85;;;2.30;;
69991;SDS011;57332;51.320;-0.580;2023-05-10T00:26:03;3.13;;;1.90;;
69991;SDS011;57332;51.320;-0.580;2023-05-10T00:28:30;3.42;;;1.80;;
69991;SDS011;57332;51.320;-0.580;2023-05-10T00:30:57;3.95;;;1.92;;
69991;SDS011;57332;51.320;-0.580;2023-05-10T00:33:24;4.57;;;1.70;;
69991;SDS011;57332;51.320;-0.580;2023-05-10T00:35:51;4.28;;;2.20;;
69991;SDS011;57332;51.320;-0.580;2023-05-10T00:38:18;4.28;;;2.00;;
69991;SDS011;57332;51.320;-0.580;2023-05-10T00:40:45;4.05;;;2.00;;
69991;SDS011;57332;51.320;-0.580;2023-05-10T00:43:12;3.60;;;1.88;;
69991;SDS011;57332;51.320;-0.580;2023-05-10T00:45:39;3.22;;;1.75;;
69991;SDS011;57332;51.320;-0.580;2023-05-10T00:48:06;4.82;;;1.92;;
69991;SDS011;57332;51.320;-0.580;2023-05-10T00:50:33;6.63;;;2.10;;
69991;SDS011;57332;51.320;-0.580;2023-05-10T00:53:00;4.65;;;2.17;;
69991;SDS011;57332;51.320;-0.580;2023-05-10T00:55:27;4.00;;;1.90;;
69991;SDS011;57332;51.320;-0.580;2023-05-10T00:57:54;4.30;;;1.98;;
69991;SDS011;57332;51.320;-0.580;2023-05-10T01:00:22;6.53;;;1.98;;
69991;SDS011;57332;51.320;-0.580;2023-05-10T01:02:49;8.13;;;2.60;;
69991;SDS011;57332;51.320;-0.580;2023-05-10T01:05:17;4.40;;;2.08;;
69991;SDS011;57332;51.320;-0.580;2023-05-10T01:07:43;5.35;;;2.20;;
69991;SDS011;57332;51.320;-0.580;2023-05-10T01:10:10;4.93;;;2.10;;
69991;SDS011;57332;51.320;-0.580;2023-05-10T01:12:38;5.80;;;2.42;;
69991;SDS011;57332;51.320;-0.580;2023-05-10T01:15:06;5.65;;;2.40;;
69991;SDS011;57332;51.320;-0.580;2023-05-10T01:17:37;4.70;;;2.20;;
69991;SDS011;57332;51.320;-0.580;2023-05-10T01:20:05;6.85;;;2.40;;
69991;SDS011;57332;51.320;-0.580;2023-05-10T01:35:43;6.55;;;2.78;;
69991;SDS011;57332;51.320;-0.580;2023-05-10T01:41:03;7.53;;;3.22;;
69991;SDS011;57332;51.320;-0.580;2023-05-10T01:43:37;6.32;;;3.33;;
69991;SDS011;57332;51.320;-0.580;2023-05-10T01:46:09;9.63;;;2.83;;
69991;SDS011;57332;51.320;-0.580;2023-05-10T01:48:38;7.00;;;3.30;;
69991;SDS011;57332;51.320;-0.580;2023-05-10T01:51:06;7.28;;;2.90;;
69991;SDS011;57332;51.320;-0.580;2023-05-10T01:53:34;7.03;;;3.65;;
69991;SDS011;57332;51.320;-0.580;2023-05-10T01:56:04;7.28;;;3.40;;
69991;SDS011;57332;51.320;-0.580;2023-05-10T01:58:31;7.45;;;3.53;;
69991;SDS011;57332;51.320;-0.580;2023-05-10T02:01:00;8.50;;;3.42;;
69991;SDS011;57332;51.320;-0.580;2023-05-10T02:03:28;8.75;;;3.17;;
69991;SDS011;57332;51.320;-0.580;2023-05-10T02:05:55;7.78;;;3.10;;
69991;SDS011;57332;51.320;-0.580;2023-05-10T02:08:22;9.88;;;3.70;;
69991;SDS011;57332;51.320;-0.580;2023-05-10T02:10:51;6.60;;;3.42;;
69991;SDS011;57332;51.320;-0.580;2023-05-10T02:13:18;10.80;;;3.63;;
69991;SDS011;57332;51.320;-0.580;2023-05-10T02:15:48;10.10;;;3.50;;
69991;SDS011;57332;51.320;-0.580;2023-05-10T02:18:16;7.03;;;3.47;;
69991;SDS011;57332;51.320;-0.580;2023-05-10T02:20:45;8.27;;;3.30;;
69991;SDS011;57332;51.320;-0.580;2023-05-10T02:23:13;7.88;;;3.38;;
69991;SDS011;57332;51.320;-0.580;2023-05-10T02:25:41;8.88;;;3.42;;
69991;SDS011;57332;51.320;-0.580;2023-05-10T02:28:08;9.45;;;4.28;;
69991;SDS011;57332;51.320;-0.580;2023-05-10T02:30:35;7.80;;;3.63;;
69991;SDS011;57332;51.320;-0.580;2023-05-10T02:33:02;8.63;;;3.50;;
69991;SDS011;57332;51.320;-0.580;2023-05-10T02:35:30;7.88;;;3.63;;
69991;SDS011;57332;51.320;-0.580;2023-05-10T02:37:59;11.38;;;3.60;;
69991;SDS011;57332;51.320;-0.580;2023-05-10T02:40:27;9.65;;;3.80;;
69991;SDS011;57332;51.320;-0.580;2023-05-10T02:42:55;11.38;;;4.15;;
69991;SDS011;57332;51.320;-0.580;2023-05-10T02:45:23;9.75;;;4.20;;
69991;SDS011;57332;51.320;-0.580;2023-05-10T02:47:51;9.85;;;4.07;;
69991;SDS011;57332;51.320;-0.580;2023-05-10T02:50:19;9.95;;;3.88;;
69991;SDS011;57332;51.320;-0.580;2023-05-10T02:52:47;7.88;;;4.07;;
69991;SDS011;57332;51.320;-0.580;2023-05-10T02:55:16;8.18;;;3.88;;
69991;SDS011;57332;51.320;-0.580;2023-05-10T02:58:05;9.50;;;4.35;;
69991;SDS011;57332;51.320;-0.580;2023-05-10T03:00:31;9.43;;;4.45;;
69991;SDS011;57332;51.320;-0.580;2023-05-10T03:02:58;11.20;;;4.00;;
69991;SDS011;57332;51.320;-0.580;2023-05-10T03:05:25;9.65;;;3.95;;
69991;SDS011;57332;51.320;-0.580;2023-05-10T03:07:52;12.43;;;4.35;;
69991;SDS011;57332;51.320;-0.580;2023-05-10T03:10:21;8.90;;;3.90;;
69991;SDS011;57332;51.320;-0.580;2023-05-10T03:20:41;10.07;;;4.38;;
69991;SDS011;57332;51.320;-0.580;2023-05-10T03:23:12;12.02;;;4.07;;
69991;SDS011;57332;51.320;-0.580;2023-05-10T03:25:40;9.80;;;4.07;;
69991;SDS011;57332;51.320;-0.580;2023-05-10T03:28:07;9.27;;;4.25;;
69991;SDS011;57332;51.320;-0.580;2023-05-10T03:30:35;11.57;;;4.90;;
69991;SDS011;57332;51.320;-0.580;2023-05-10T03:33:06;11.55;;;4.25;;
69991;SDS011;57332;51.320;-0.580;2023-05-10T03:35:33;11.98;;;4.82;;
69991;SDS011;57332;51.320;-0.580;2023-05-10T03:38:00;9.73;;;4.38;;
69991;SDS011;57332;51.320;-0.580;2023-05-10T03:40:27;12.02;;;4.40;;
69991;SDS011;57332;51.320;-0.580;2023-05-10T03:45:25;13.45;;;5.20;;
69991;SDS011;57332;51.320;-0.580;2023-05-10T03:47:52;10.60;;;4.18;;
69991;SDS011;57332;51.320;-0.580;2023-05-10T03:50:19;11.27;;;4.47;;
69991;SDS011;57332;51.320;-0.580;2023-05-10T03:52:46;14.35;;;4.50;;
69991;SDS011;57332;51.320;-0.580;2023-05-10T03:55:13;12.30;;;4.43;;
69991;SDS011;57332;51.320;-0.580;2023-05-10T03:57:40;11.98;;;4.18;;
69991;SDS011;57332;51.320;-0.580;2023-05-10T04:00:07;10.60;;;4.65;;
69991;SDS011;57332;51.320;-0.580;2023-05-10T04:02:34;12.85;;;4.07;;
69991;SDS011;57332;51.320;-0.580;2023-05-10T04:05:01;9.20;;;4.60;;
69991;SDS011;57332;51.320;-0.580;2023-05-10T04:07:29;14.80;;;4.32;;
69991;SDS011;57332;51.320;-0.580;2023-05-10T04:09:55;9.73;;;3.90;;
69991;SDS011;57332;51.320;-0.580;2023-05-10T04:12:22;7.53;;;3.45;;
69991;SDS011;57332;51.320;-0.580;2023-05-10T04:14:49;10.77;;;4.05;;
69991;SDS011;57332;51.320;-0.580;2023-05-10T04:17:16;11.13;;;3.58;;
69991;SDS011;57332;51.320;-0.580;2023-05-10T04:19:43;9.15;;;3.50;;
69991;SDS011;57332;51.320;-0.580;2023-05-10T04:22:10;11.35;;;3.67;;
69991;SDS011;57332;51.320;-0.580;2023-05-10T04:24:36;9.18;;;3.35;;
69991;SDS011;57332;51.320;-0.580;2023-05-10T04:27:03;9.38;;;3.22;;
69991;SDS011;57332;51.320;-0.580;2023-05-10T04:29:30;9.07;;;3.55;;
69991;SDS011;57332;51.320;-0.580;2023-05-10T04:31:57;10.38;;;3.50;;
69991;SDS011;57332;51.320;-0.580;2023-05-10T04:34:24;6.90;;;3.35;;
69991;SDS011;57332;51.320;-0.580;2023-05-10T04:36:51;9.93;;;3.58;;
69991;SDS011;57332;51.320;-0.580;2023-05-10T04:39:18;10.10;;;3.42;;
69991;SDS011;57332;51.320;-0.580;2023-05-10T04:41:44;9.23;;;4.25;;
69991;SDS011;57332;51.320;-0.580;2023-05-10T04:44:11;8.55;;;3.60;;
69991;SDS011;57332;51.320;-0.580;2023-05-10T04:46:38;11.30;;;3.85;;
69991;SDS011;57332;51.320;-0.580;2023-05-10T04:49:05;10.55;;;4.13;;
69991;SDS011;57332;51.320;-0.580;2023-05-10T04:51:32;13.25;;;4.13;;
69991;SDS011;57332;51.320;-0.580;2023-05-10T04:53:59;9.75;;;3.85;;
69991;SDS011;57332;51.320;-0.580;2023-05-10T04:56:32;8.15;;;3.55;;
69991;SDS011;57332;51.320;-0.580;2023-05-10T04:58:59;13.00;;;4.28;;
69991;SDS011;57332;51.320;-0.580;2023-05-10T05:01:26;11.40;;;4.10;;
69991;SDS011;57332;51.320;-0.580;2023-05-10T05:03:53;11.55;;;4.18;;
69991;SDS011;57332;51.320;-0.580;2023-05-10T05:06:20;12.02;;;4.25;;
69991;SDS011;57332;51.320;-0.580;2023-05-10T05:08:51;10.98;;;4.53;;
69991;SDS011;57332;51.320;-0.580;2023-05-10T05:11:18;12.18;;;4.30;;
69991;SDS011;57332;51.320;-0.580;2023-05-10T05:13:45;12.65;;;4.70;;
69991;SDS011;57332;51.320;-0.580;2023-05-10T05:16:12;15.98;;;4.32;;
69991;SDS011;57332;51.320;-0.580;2023-05-10T05:18:39;12.30;;;4.60;;
69991;SDS011;57332;51.320;-0.580;2023-05-10T05:21:18;14.40;;;4.75;;
69991;SDS011;57332;51.320;-0.580;2023-05-10T05:23:45;10.55;;;4.38;;
69991;SDS011;57332;51.320;-0.580;2023-05-10T05:26:12;13.73;;;4.70;;
69991;SDS011;57332;51.320;-0.580;2023-05-10T05:28:39;14.45;;;5.53;;
69991;SDS011;57332;51.320;-0.580;2023-05-10T05:31:06;15.68;;;4.60;;
69991;SDS011;57332;51.320;-0.580;2023-05-10T05:33:36;12.95;;;5.00;;
69991;SDS011;57332;51.320;-0.580;2023-05-10T05:36:04;12.93;;;4.57;;
69991;SDS011;57332;51.320;-0.580;2023-05-10T05:38:31;10.95;;;4.35;;
69991;SDS011;57332;51.320;-0.580;2023-05-10T05:40:58;16.67;;;4.30;;
69991;SDS011;57332;51.320;-0.580;2023-05-10T05:43:25;14.57;;;5.38;;
69991;SDS011;57332;51.320;-0.580;2023-05-10T05:45:52;12.95;;;5.43;;
69991;SDS011;57332;51.320;-0.580;2023-05-10T05:48:21;16.95;;;5.15;;
69991;SDS011;57332;51.320;-0.580;2023-05-10T05:50:48;17.13;;;5.10;;
69991;SDS011;57332;51.320;-0.580;2023-05-10T05:53:15;15.10;;;5.63;;
69991;SDS011;57332;51.320;-0.580;2023-05-10T05:55:54;18.00;;;5.80;;
69991;SDS011;57332;51.320;-0.580;2023-05-10T05:58:22;14.45;;;6.10;;
69991;SDS011;57332;51.320;-0.580;2023-05-10T06:00:49;15.50;;;5.18;;
69991;SDS011;57332;51.320;-0.580;2023-05-10T06:03:16;13.63;;;5.40;;
69991;SDS011;57332;51.320;-0.580;2023-05-10T06:05:43;14.77;;;4.78;;
69991;SDS011;57332;51.320;-0.580;2023-05-10T06:08:10;15.00;;;5.40;;
69991;SDS011;57332;51.320;-0.580;2023-05-10T06:10:37;17.92;;;4.93;;
69991;SDS011;57332;51.320;-0.580;2023-05-10T06:13:04;17.70;;;5.53;;
69991;SDS011;57332;51.320;-0.580;2023-05-10T06:15:31;14.93;;;5.25;;
69991;SDS011;57332;51.320;-0.580;2023-05-10T06:17:59;13.88;;;5.03;;
69991;SDS011;57332;51.320;-0.580;2023-05-10T06:20:26;13.18;;;4.72;;
69991;SDS011;57332;51.320;-0.580;2023-05-10T06:22:53;13.27;;;4.90;;
69991;SDS011;57332;51.320;-0.580;2023-05-10T06:25:20;17.75;;;5.32;;
69991;SDS011;57332;51.320;-0.580;2023-05-10T06:27:47;14.15;;;4.63;;
69991;SDS011;57332;51.320;-0.580;2023-05-10T06:30:19;15.05;;;5.50;;
69991;SDS011;57332;51.320;-0.580;2023-05-10T06:32:45;16.88;;;5.13;;
69991;SDS011;57332;51.320;-0.580;2023-05-10T06:35:12;12.82;;;5.00;;
69991;SDS011;57332;51.320;-0.580;2023-05-10T06:37:39;12.07;;;4.63;;
69991;SDS011;57332;51.320;-0.580;2023-05-10T06:40:06;17.60;;;6.30;;
69991;SDS011;57332;51.320;-0.580;2023-05-10T06:42:33;13.45;;;5.55;;
69991;SDS011;57332;51.320;-0.580;2023-05-10T06:45:00;15.48;;;5.57;;
69991;SDS011;57332;51.320;-0.580;2023-05-10T06:47:27;14.15;;;5.80;;
69991;SDS011;57332;51.320;-0.580;2023-05-10T06:49:54;17.55;;;6.25;;
69991;SDS011;57332;51.320;-0.580;2023-05-10T06:52:22;14.10;;;6.00;;
69991;SDS011;57332;51.320;-0.580;2023-05-10T06:54:49;16.48;;;5.75;;
69991;SDS011;57332;51.320;-0.580;2023-05-10T06:57:16;15.90;;;6.20;;
69991;SDS011;57332;51.320;-0.580;2023-05-10T06:59:57;16.40;;;5.65;;
69991;SDS011;57332;51.320;-0.580;2023-05-10T07:02:24;17.98;;;6.57;;
69991;SDS011;57332;51.320;-0.580;2023-05-10T07:04:51;12.32;;;5.57;;
69991;SDS011;57332;51.320;-0.580;2023-05-10T07:07:18;15.65;;;5.68;;
69991;SDS011;57332;51.320;-0.580;2023-05-10T07:09:45;16.65;;;5.90;;
69991;SDS011;57332;51.320;-0.580;2023-05-10T07:12:12;15.50;;;6.30;;
69991;SDS011;57332;51.320;-0.580;2023-05-10T07:14:41;15.00;;;5.25;;
69991;SDS011;57332;51.320;-0.580;2023-05-10T07:17:08;15.50;;;4.97;;
69991;SDS011;57332;51.320;-0.580;2023-05-10T07:19:35;15.80;;;5.55;;
69991;SDS011;57332;51.320;-0.580;2023-05-10T07:22:02;12.90;;;5.47;;
69991;SDS011;57332;51.320;-0.580;2023-05-10T07:24:29;14.55;;;5.57;;
69991;SDS011;57332;51.320;-0.580;2023-05-10T07:26:57;15.63;;;5.70;;
69991;SDS011;57332;51.320;-0.580;2023-05-10T07:29:24;17.58;;;5.88;;
69991;SDS011;57332;51.320;-0.580;2023-05-10T07:31:51;18.55;;;5.90;;
69991;SDS011;57332;51.320;-0.580;2023-05-10T07:34:18;15.32;;;6.53;;
69991;SDS011;57332;51.320;-0.580;2023-05-10T07:36:45;14.90;;;6.07;;
69991;SDS011;57332;51.320;-0.580;2023-05-10T07:39:12;14.57;;;6.22;;
69991;SDS011;57332;51.320;-0.580;2023-05-10T07:41:51;17.25;;;6.22;;
69991;SDS011;57332;51.320;-0.580;2023-05-10T07:44:18;16.80;;;6.45;;
69991;SDS011;57332;51.320;-0.580;2023-05-10T07:46:47;15.93;;;5.38;;
69991;SDS011;57332;51.320;-0.580;2023-05-10T07:49:14;15.57;;;5.57;;
69991;SDS011;57332;51.320;-0.580;2023-05-10T07:51:41;15.55;;;7.03;;
69991;SDS011;57332;51.320;-0.580;2023-05-10T07:54:09;17.42;;;6.72;;
69991;SDS011;57332;51.320;-0.580;2023-05-10T07:56:35;20.05;;;7.20;;
69991;SDS011;57332;51.320;-0.580;2023-05-10T07:59:03;14.65;;;6.68;;
69991;SDS011;57332;51.320;-0.580;2023-05-10T08:01:36;19.13;;;6.93;;
69991;SDS011;57332;51.320;-0.580;2023-05-10T08:04:03;19.63;;;6.13;;
69991;SDS011;57332;51.320;-0.580;2023-05-10T08:06:30;18.10;;;7.18;;
69991;SDS011;57332;51.320;-0.580;2023-05-10T08:08:57;16.38;;;6.82;;
69991;SDS011;57332;51.320;-0.580;2023-05-10T08:11:24;15.45;;;6.18;;
69991;SDS011;57332;51.320;-0.580;2023-05-10T08:13:51;14.18;;;5.88;;
69991;SDS011;57332;51.320;-0.580;2023-05-10T08:16:18;13.45;;;5.53;;
69991;SDS011;57332;51.320;-0.580;2023-05-10T08:18:46;13.68;;;6.03;;
69991;SDS011;57332;51.320;-0.580;2023-05-10T08:21:13;17.08;;;6.45;;
69991;SDS011;57332;51.320;-0.580;2023-05-10T08:23:41;13.40;;;6.18;;
69991;SDS011;57332;51.320;-0.580;2023-05-10T08:26:07;13.00;;;5.28;;
69991;SDS011;57332;51.320;-0.580;2023-05-10T08:28:34;13.18;;;5.53;;
69991;SDS011;57332;51.320;-0.580;2023-05-10T08:31:01;14.30;;;5.78;;
69991;SDS011;57332;51.320;-0.580;2023-05-10T08:33:28;12.90;;;5.15;;
69991;SDS011;57332;51.320;-0.580;2023-05-10T08:35:55;12.70;;;4.97;;
69991;SDS011;57332;51.320;-0.580;2023-05-10T08:38:22;11.70;;;4.90;;
69991;SDS011;57332;51.320;-0.580;2023-05-10T08:40:49;12.52;;;5.28;;
69991;SDS011;57332;51.320;-0.580;2023-05-10T08:43:17;13.32;;;4.90;;
69991;SDS011;57332;51.320;-0.580;2023-05-10T08:45:44;10.20;;;5.05;;
69991;SDS011;57332;51.320;-0.580;2023-05-10T08:48:14;11.38;;;4.38;;
69991;SDS011;57332;51.320;-0.580;2023-05-10T08:50:42;12.95;;;5.07;;
69991;SDS011;57332;51.320;-0.580;2023-05-10T08:53:10;14.68;;;5.80;;
69991;SDS011;57332;51.320;-0.580;2023-05-10T08:55:38;11.60;;;4.40;;
69991;SDS011;57332;51.320;-0.580;2023-05-10T08:58:05;10.35;;;3.80;;
69991;SDS011;57332;51.320;-0.580;2023-05-10T09:00:33;9.00;;;3.67;;
69991;SDS011;57332;51.320;-0.580;2023-05-10T09:03:00;14.45;;;4.18;;
69991;SDS011;57332;51.320;-0.580;2023-05-10T09:05:27;8.95;;;4.35;;
69991;SDS011;57332;51.320;-0.580;2023-05-10T09:07:54;13.00;;;3.95;;
69991;SDS011;57332;51.320;-0.580;2023-05-10T09:10:21;8.57;;;3.55;;
69991;SDS011;57332;51.320;-0.580;2023-05-10T09:12:49;7.47;;;3.40;;
69991;SDS011;57332;51.320;-0.580;2023-05-10T09:15:16;6.65;;;3.63;;
69991;SDS011;57332;51.320;-0.580;2023-05-10T09:17:46;8.65;;;3.47;;
69991;SDS011;57332;51.320;-0.580;2023-05-10T09:20:12;9.73;;;3.60;;
69991;SDS011;57332;51.320;-0.580;2023-05-10T09:22:40;9.45;;;3.20;;
69991;SDS011;57332;51.320;-0.580;2023-05-10T09:25:08;9.32;;;3.30;;
69991;SDS011;57332;51.320;-0.580;2023-05-10T09:27:35;7.85;;;2.90;;
69991;SDS011;57332;51.320;-0.580;2023-05-10T09:30:03;6.72;;;3.05;;
69991;SDS011;57332;51.320;-0.580;2023-05-10T09:32:45;6.72;;;3.30;;
69991;SDS011;57332;51.320;-0.580;2023-05-10T09:35:14;11.27;;;3.65;;
69991;SDS011;57332;51.320;-0.580;2023-05-10T09:37:42;7.22;;;2.80;;
69991;SDS011;57332;51.320;-0.580;2023-05-10T09:40:16;10.43;;;2.92;;
69991;SDS011;57332;51.320;-0.580;2023-05-10T09:42:50;6.53;;;2.83;;
69991;SDS011;57332;51.320;-0.580;2023-05-10T09:45:17;5.40;;;2.38;;
69991;SDS011;57332;51.320;-0.580;2023-05-10T09:47:45;8.32;;;3.38;;
69991;SDS011;57332;51.320;-0.580;2023-05-10T09:50:12;6.95;;;2.80;;
69991;SDS011;57332;51.320;-0.580;2023-05-10T09:52:46;6.32;;;3.03;;
69991;SDS011;57332;51.320;-0.580;2023-05-10T09:55:13;6.55;;;2.58;;
69991;SDS011;57332;51.320;-0.580;2023-05-10T09:57:40;9.00;;;3.00;;
69991;SDS011;57332;51.320;-0.580;2023-05-10T10:00:07;6.30;;;2.47;;
69991;SDS011;57332;51.320;-0.580;2023-05-10T10:02:36;7.45;;;2.55;;
69991;SDS011;57332;51.320;-0.580;2023-05-10T10:05:03;6.53;;;2.33;;
69991;SDS011;57332;51.320;-0.580;2023-05-10T10:07:30;7.72;;;3.20;;
69991;SDS011;57332;51.320;-0.580;2023-05-10T10:09:58;7.90;;;2.70;;
69991;SDS011;57332;51.320;-0.580;2023-05-10T10:12:25;6.97;;;2.50;;
69991;SDS011;57332;51.320;-0.580;2023-05-10T10:14:52;7.30;;;2.65;;
69991;SDS011;57332;51.320;-0.580;2023-05-10T10:17:19;9.93;;;2.78;;
69991;SDS011;57332;51.320;-0.580;2023-05-10T10:19:46;7.68;;;2.47;;
69991;SDS011;57332;51.320;-0.580;2023-05-10T10:22:14;7.38;;;2.75;;
69991;SDS011;57332;51.320;-0.580;2023-05-10T10:24:42;4.93;;;2.03;;
69991;SDS011;57332;51.320;-0.580;2023-05-10T10:27:19;6.20;;;2.00;;
69991;SDS011;57332;51.320;-0.580;2023-05-10T10:29:49;7.07;;;2.53;;
69991;SDS011;57332;51.320;-0.580;2023-05-10T10:32:25;8.35;;;2.47;;
69991;SDS011;57332;51.320;-0.580;2023-05-10T10:34:54;7.60;;;2.00;;
69991;SDS011;57332;51.320;-0.580;2023-05-10T10:37:22;6.07;;;2.42;;
69991;SDS011;57332;51.320;-0.580;2023-05-10T10:39:49;7.00;;;2.50;;
69991;SDS011;57332;51.320;-0.580;2023-05-10T10:42:43;5.07;;;1.75;;
69991;SDS011;57332;51.320;-0.580;2023-05-10T10:45:12;8.02;;;2.50;;
69991;SDS011;57332;51.320;-0.580;2023-05-10T10:47:40;7.82;;;2.15;;
69991;SDS011;57332;51.320;-0.580;2023-05-10T10:50:09;8.27;;;2.30;;
69991;SDS011;57332;51.320;-0.580;2023-05-10T10:52:39;8.88;;;2.65;;
69991;SDS011;57332;51.320;-0.580;2023-05-10T10:55:08;5.53;;;2.08;;
69991;SDS011;57332;51.320;-0.580;2023-05-10T10:57:48;5.63;;;2.10;;
69991;SDS011;57332;51.320;-0.580;2023-05-10T11:02:59;7.93;;;2.38;;
69991;SDS011;57332;51.320;-0.580;2023-05-10T11:08:00;7.00;;;2.75;;
69991;SDS011;57332;51.320;-0.580;2023-05-10T11:10:27;6.05;;;2.42;;
69991;SDS011;57332;51.320;-0.580;2023-05-10T11:13:00;7.65;;;2.58;;
69991;SDS011;57332;51.320;-0.580;2023-05-10T11:15:31;8.02;;;2.55;;
69991;SDS011;57332;51.320;-0.580;2023-05-10T11:17:57;4.97;;;2.20;;
69991;SDS011;57332;51.320;-0.580;2023-05-10T11:20:27;6.75;;;2.28;;
69991;SDS011;57332;51.320;-0.580;2023-05-10T11:23:10;4.10;;;2.03;;
69991;SDS011;57332;51.320;-0.580;2023-05-10T11:25:47;5.47;;;2.22;;
69991;SDS011;57332;51.320;-0.580;2023-05-10T11:28:16;7.03;;;2.67;;
69991;SDS011;57332;51.320;-0.580;2023-05-10T11:30:43;6.93;;;2.50;;
69991;SDS011;57332;51.320;-0.580;2023-05-10T11:33:14;5.80;;;2.08;;
69991;SDS011;57332;51.320;-0.580;2023-05-10T11:35:41;7.15;;;2.33;;
69991;SDS011;57332;51.320;-0.580;2023-05-10T11:38:09;8.23;;;2.20;;
69991;SDS011;57332;51.320;-0.580;2023-05-10T11:40:36;3.58;;;2.10;;
69991;SDS011;57332;51.320;-0.580;2023-05-10T11:43:04;4.55;;;1.42;;
69991;SDS011;57332;51.320;-0.580;2023-05-10T11:45:32;4.28;;;1.60;;
69991;SDS011;57332;51.320;-0.580;2023-05-10T11:47:59;6.07;;;1.90;;
69991;SDS011;57332;51.320;-0.580;2023-05-10T11:50:26;4.78;;;1.35;;
69991;SDS011;57332;51.320;-0.580;2023-05-10T11:52:54;4.68;;;1.75;;
69991;SDS011;57332;51.320;-0.580;2023-05-10T11:55:21;4.82;;;1.90;;
69991;SDS011;57332;51.320;-0.580;2023-05-10T11:57:51;5.18;;;2.28;;
69991;SDS011;57332;51.320;-0.580;2023-05-10T12:00:18;9.25;;;2.25;;
69991;SDS011;57332;51.320;-0.580;2023-05-10T12:02:45;7.35;;;1.98;;
69991;SDS011;57332;51.320;-0.580;2023-05-10T12:05:12;8.80;;;1.85;;
69991;SDS011;57332;51.320;-0.580;2023-05-10T12:07:40;5.25;;;2.03;;
69991;SDS011;57332;51.320;-0.580;2023-05-10T12:10:10;6.07;;;1.90;;
69991;SDS011;57332;51.320;-0.580;2023-05-10T12:15:11;6.90;;;2.00;;
69991;SDS011;57332;51.320;-0.580;2023-05-10T12:17:39;6.88;;;2.28;;
69991;SDS011;57332;51.320;-0.580;2023-05-10T12:20:19;5.35;;;1.55;;
69991;SDS011;57332;51.320;-0.580;2023-05-10T12:25:13;5.07;;;1.55;;
69991;SDS011;57332;51.320;-0.580;2023-05-10T12:27:40;7.03;;;2.42;;
69991;SDS011;57332;51.320;-0.580;2023-05-10T12:43:07;3.08;;;1.23;;
69991;SDS011;57332;51.320;-0.580;2023-05-10T12:45:33;2.92;;;1.20;;
69991;SDS011;57332;51.320;-0.580;2023-05-10T12:48:01;1.98;;;0.95;;
69991;SDS011;57332;51.320;-0.580;2023-05-10T12:50:28;2.72;;;0.95;;
69991;SDS011;57332;51.320;-0.580;2023-05-10T12:52:54;4.25;;;1.23;;
69991;SDS011;57332;51.320;-0.580;2023-05-10T12:55:21;4.20;;;1.48;;
69991;SDS011;57332;51.320;-0.580;2023-05-10T12:57:48;3.53;;;1.40;;
69991;SDS011;57332;51.320;-0.580;2023-05-10T13:00:15;3.55;;;1.30;;
69991;SDS011;57332;51.320;-0.580;2023-05-10T13:02:42;3.40;;;1.30;;
69991;SDS011;57332;51.320;-0.580;2023-05-10T13:05:09;3.72;;;1.33;;
69991;SDS011;57332;51.320;-0.580;2023-05-10T13:07:36;5.53;;;1.90;;
69991;SDS011;57332;51.320;-0.580;2023-05-10T13:10:03;4.65;;;1.80;;
69991;SDS011;57332;51.320;-0.580;2023-05-10T13:12:30;4.85;;;1.20;;
69991;SDS011;57332;51.320;-0.580;2023-05-10T13:14:57;1.90;;;0.80;;
69991;SDS011;57332;51.320;-0.580;2023-05-10T13:17:25;2.65;;;0.82;;
69991;SDS011;57332;51.320;-0.580;2023-05-10T13:19:52;2.45;;;0.85;;
69991;SDS011;57332;51.320;-0.580;2023-05-10T13:22:18;4.32;;;1.00;;
69991;SDS011;57332;51.320;-0.580;2023-05-10T13:25:02;1.92;;;0.80;;
69991;SDS011;57332;51.320;-0.580;2023-05-10T13:27:29;3.08;;;1.13;;
69991;SDS011;57332;51.320;-0.580;2023-05-10T13:29:55;1.95;;;0.90;;
69991;SDS011;57332;51.320;-0.580;2023-05-10T13:32:22;3.15;;;1.00;;
69991;SDS011;57332;51.320;-0.580;2023-05-10T13:34:49;2.60;;;1.00;;
69991;SDS011;57332;51.320;-0.580;2023-05-10T13:37:16;2.65;;;1.10;;
69991;SDS011;57332;51.320;-0.580;2023-05-10T13:39:43;2.63;;;1.30;;
69991;SDS011;57332;51.320;-0.580;2023-05-10T13:42:09;2.80;;;1.10;;
69991;SDS011;57332;51.320;-0.580;2023-05-10T13:44:36;4.25;;;1.30;;
69991;SDS011;57332;51.320;-0.580;2023-05-10T13:47:05;3.15;;;1.13;;
69991;SDS011;57332;51.320;-0.580;2023-05-10T13:49:32;3.78;;;1.15;;
69991;SDS011;57332;51.320;-0.580;2023-05-10T13:52:00;5.68;;;1.45;;
69991;SDS011;57332;51.320;-0.580;2023-05-10T13:54:33;5.40;;;1.52;;
69991;SDS011;57332;51.320;-0.580;2023-05-10T13:57:00;2.70;;;1.48;;
69991;SDS011;57332;51.320;-0.580;2023-05-10T13:59:28;4.00;;;1.17;;
69991;SDS011;57332;51.320;-0.580;2023-05-10T14:01:55;6.40;;;1.52;;
69991;SDS011;57332;51.320;-0.580;2023-05-10T14:04:22;2.42;;;1.30;;
69991;SDS011;57332;51.320;-0.580;2023-05-10T14:06:49;3.78;;;1.40;;
69991;SDS011;57332;51.320;-0.580;2023-05-10T14:09:16;1.80;;;1.00;;
69991;SDS011;57332;51.320;-0.580;2023-05-10T14:11:43;2.47;;;1.27;;
69991;SDS011;57332;51.320;-0.580;2023-05-10T14:14:11;3.45;;;1.20;;
69991;SDS011;57332;51.320;-0.580;2023-05-10T14:16:42;2.25;;;0.95;;
69991;SDS011;57332;51.320;-0.580;2023-05-10T14:19:10;2.22;;;1.00;;
69991;SDS011;57332;51.320;-0.580;2023-05-10T14:21:36;3.67;;;1.02;;
69991;SDS011;57332;51.320;-0.580;2023-05-10T14:24:03;5.82;;;1.33;;
69991;SDS011;57332;51.320;-0.580;2023-05-10T14:26:31;4.55;;;1.30;;
69991;SDS011;57332;51.320;-0.580;2023-05-10T14:29:00;3.65;;;1.20;;
69991;SDS011;57332;51.320;-0.580;2023-05-10T14:31:27;2.85;;;1.27;;
69991;SDS011;57332;51.320;-0.580;2023-05-10T14:33:54;2.80;;;1.10;;
69991;SDS011;57332;51.320;-0.580;2023-05-10T14:36:21;4.57;;;1.30;;
69991;SDS011;57332;51.320;-0.580;2023-05-10T14:38:47;3.55;;;1.10;;
69991;SDS011;57332;51.320;-0.580;2023-05-10T14:41:15;4.25;;;1.20;;
69991;SDS011;57332;51.320;-0.580;2023-05-10T14:43:43;6.30;;;1.38;;
69991;SDS011;57332;51.320;-0.580;2023-05-10T14:46:10;2.55;;;1.10;;
69991;SDS011;57332;51.320;-0.580;2023-05-10T14:48:37;4.20;;;1.42;;
69991;SDS011;57332;51.320;-0.580;2023-05-10T14:51:04;6.07;;;1.63;;
69991;SDS011;57332;51.320;-0.580;2023-05-10T14:53:31;4.68;;;1.52;;
69991;SDS011;57332;51.320;-0.580;2023-05-10T14:55:59;5.20;;;1.73;;
69991;SDS011;57332;51.320;-0.580;2023-05-10T14:58:27;4.32;;;1.20;;
69991;SDS011;57332;51.320;-0.580;2023-05-10T15:00:54;4.03;;;1.45;;
69991;SDS011;57332;51.320;-0.580;2023-05-10T15:03:21;4.55;;;1.30;;
69991;SDS011;57332;51.320;-0.580;2023-05-10T15:05:49;3.50;;;1.30;;
69991;SDS011;57332;51.320;-0.580;2023-05-10T15:08:16;4.72;;;1.63;;
69991;SDS011;57332;51.320;-0.580;2023-05-10T15:10:43;4.03;;;1.42;;
69991;SDS011;57332;51.320;-0.580;2023-05-10T15:13:10;5.95;;;1.73;;
69991;SDS011;57332;51.320;-0.580;2023-05-10T15:15:36;5.47;;;1.55;;
69991;SDS011;57332;51.320;-0.580;2023-05-10T15:18:03;4.90;;;1.35;;
69991;SDS011;57332;51.320;-0.580;2023-05-10T15:20:31;3.40;;;1.35;;
69991;SDS011;57332;51.320;-0.580;2023-05-10T15:22:58;3.83;;;1.60;;
69991;SDS011;57332;51.320;-0.580;2023-05-10T15:27:53;6.22;;;1.40;;